createdAt,value
2023-04-17T00:01:07.674Z,60.80
2023-04-17T00:03:37.969Z,62.41
2023-04-17T00:06:06.661Z,63.27
2023-04-17T00:08:35.300Z,63.85
2023-04-17T00:11:07.915Z,63.97
2023-04-17T00:13:37.627Z,64.34
2023-04-17T00:16:06.361Z,64.43
2023-04-17T00:18:34.621Z,63.44
2023-04-17T00:21:04.604Z,63.07
2023-04-17T00:23:33.106Z,62.34
2023-04-17T00:26:01.475Z,61.64
2023-04-17T00:28:29.779Z,62.02
2023-04-17T00:30:59.029Z,63.65
2023-04-17T00:33:27.262Z,62.85
2023-04-17T00:35:55.552Z,62.56
2023-04-17T00:38:25.211Z,62.71
2023-04-17T00:40:53.610Z,64.13
2023-04-17T00:43:21.885Z,64.21
2023-04-17T00:45:50.507Z,66.78
2023-04-17T00:48:19.406Z,66.29
2023-04-17T00:50:47.686Z,66.73
2023-04-17T00:53:16.235Z,67.15
2023-04-17T00:55:46.241Z,66.56
2023-04-17T00:58:14.723Z,65.37
2023-04-17T01:00:42.982Z,64.19
2023-04-17T01:03:12.020Z,63.73
2023-04-17T01:05:40.786Z,63.87
2023-04-17T01:08:09.046Z,64.99
2023-04-17T01:10:37.418Z,65.38
2023-04-17T01:13:07.943Z,65.76
2023-04-17T01:15:37.400Z,68.70
2023-04-17T01:18:06.570Z,70.18
2023-04-17T01:20:34.960Z,70.05
2023-04-17T01:23:03.265Z,66.73
2023-04-17T01:25:32.849Z,69.60
2023-04-17T01:28:01.654Z,70.37
2023-04-17T01:30:29.922Z,65.70
2023-04-17T01:32:58.238Z,66.37
2023-04-17T01:35:26.524Z,68.81
2023-04-17T01:37:54.748Z,70.75
2023-04-17T01:40:24.918Z,73.64
2023-04-17T01:42:55.140Z,75.80
2023-04-17T01:45:23.361Z,72.01
2023-04-17T01:47:51.648Z,71.62
2023-04-17T01:50:20.090Z,72.53
2023-04-17T01:52:48.366Z,77.03
2023-04-17T01:55:16.608Z,81.95
2023-04-17T01:57:44.915Z,81.95
2023-04-17T02:00:15.514Z,79.35
2023-04-17T02:02:43.775Z,78.91
2023-04-17T02:05:12.102Z,79.57
2023-04-17T02:07:40.345Z,77.10
2023-04-17T02:10:09.624Z,76.37
2023-04-17T02:12:37.876Z,76.79
2023-04-17T02:15:07.429Z,76.67
2023-04-17T02:17:37.053Z,76.76
2023-04-17T02:20:07.519Z,75.51
2023-04-17T02:22:35.879Z,73.10
2023-04-17T02:25:04.307Z,70.10
2023-04-17T02:27:32.646Z,69.49
2023-04-17T02:30:01.095Z,70.12
2023-04-17T02:32:29.382Z,71.63
2023-04-17T02:34:59.085Z,70.90
2023-04-17T02:37:27.339Z,72.41
2023-04-17T02:39:55.813Z,72.40
2023-04-17T02:42:24.177Z,73.33
2023-04-17T02:44:53.812Z,74.92
2023-04-17T02:47:23.149Z,73.75
2023-04-17T02:49:51.668Z,73.57
2023-04-17T02:52:21.352Z,75.83
2023-04-17T02:54:49.710Z,77.77
2023-04-17T02:57:17.984Z,76.50
2023-04-17T02:59:46.231Z,76.96
2023-04-17T03:02:14.687Z,77.56
2023-04-17T03:04:44.104Z,78.13
2023-04-17T03:07:13.350Z,78.66
2023-04-17T03:09:42.966Z,79.17
2023-04-17T03:12:11.275Z,80.29
2023-04-17T03:14:39.533Z,78.32
2023-04-17T03:17:07.820Z,79.62
2023-04-17T03:19:36.130Z,79.71
2023-04-17T03:22:04.719Z,83.71
2023-04-17T03:24:33.111Z,86.04
2023-04-17T03:27:02.943Z,92.61
2023-04-17T03:29:31.362Z,96.71
2023-04-17T03:31:59.607Z,87.22
2023-04-17T03:34:29.114Z,87.18
2023-04-17T03:36:57.361Z,87.35
2023-04-17T03:39:25.677Z,89.28
2023-04-17T03:41:54.019Z,90.26
2023-04-17T03:44:23.691Z,94.95
2023-04-17T03:46:51.951Z,97.41
2023-04-17T03:49:20.191Z,98.96
2023-04-17T03:51:48.492Z,99.56
2023-04-17T03:54:16.711Z,100.00
2023-04-17T03:56:44.918Z,100.00
2023-04-17T03:59:13.343Z,100.00
2023-04-17T04:01:45.381Z,100.00
2023-04-17T04:04:14.969Z,100.00
2023-04-17T04:06:43.366Z,100.00
2023-04-17T04:09:11.904Z,100.00
2023-04-17T04:11:40.335Z,100.00
2023-04-17T04:14:08.587Z,100.00
2023-04-17T04:16:37.222Z,100.00
2023-04-17T04:19:06.948Z,100.00
2023-04-17T04:21:35.543Z,100.00
2023-04-17T04:24:03.808Z,100.00
2023-04-17T04:26:33.269Z,100.00
2023-04-17T04:29:01.605Z,100.00
2023-04-17T04:31:30.660Z,100.00
2023-04-17T04:34:01.342Z,100.00
2023-04-17T04:36:31.273Z,100.00
2023-04-17T04:39:01.021Z,100.00
2023-04-17T04:41:30.097Z,100.00
2023-04-17T04:43:58.476Z,100.00
2023-04-17T04:46:26.747Z,100.00
2023-04-17T04:48:55.052Z,100.00
2023-04-17T04:51:23.446Z,100.00
2023-04-17T04:53:53.040Z,100.00
2023-04-17T04:56:21.649Z,100.00
2023-04-17T04:58:49.877Z,100.00
2023-04-17T05:01:18.640Z,100.00
2023-04-17T05:03:47.078Z,100.00
2023-04-17T05:06:15.875Z,100.00
2023-04-17T05:08:45.079Z,97.33
2023-04-17T05:11:15.358Z,92.57
2023-04-17T05:13:43.662Z,91.90
2023-04-17T05:16:12.043Z,89.83
2023-04-17T05:18:40.277Z,89.02
2023-04-17T05:21:08.511Z,91.13
2023-04-17T05:23:36.805Z,95.20
2023-04-17T05:26:05.806Z,100.00
2023-04-17T05:28:35.622Z,100.00
2023-04-17T05:31:04.098Z,100.00
2023-04-17T05:33:32.416Z,98.23
2023-04-17T05:36:00.909Z,93.08
2023-04-17T05:38:29.227Z,90.74
2023-04-17T05:40:57.502Z,85.38
2023-04-17T05:43:25.815Z,81.21
2023-04-17T05:45:55.650Z,79.31
2023-04-17T05:48:24.118Z,77.55
2023-04-17T05:50:52.350Z,77.35
2023-04-17T05:53:20.714Z,75.85
2023-04-17T05:55:48.960Z,75.57
2023-04-17T05:58:23.909Z,75.01
2023-04-17T06:00:53.225Z,74.82
2023-04-17T06:03:23.640Z,74.19
2023-04-17T06:05:52.527Z,74.15
2023-04-17T06:08:21.575Z,76.37
2023-04-17T06:10:50.818Z,77.84
2023-04-17T06:13:19.569Z,78.61
2023-04-17T06:15:47.897Z,77.91
2023-04-17T06:18:17.559Z,76.26
2023-04-17T06:20:47.395Z,75.43
2023-04-17T06:23:15.710Z,81.58
2023-04-17T06:25:44.065Z,78.33
2023-04-17T06:28:12.305Z,74.60
2023-04-17T06:30:40.818Z,78.61
2023-04-17T06:33:09.219Z,80.22
2023-04-17T06:35:37.760Z,78.18
2023-04-17T06:38:08.979Z,79.78
2023-04-17T06:40:37.290Z,80.24
2023-04-17T06:43:05.554Z,77.23
2023-04-17T06:45:34.113Z,75.42
2023-04-17T06:48:02.474Z,73.45
2023-04-17T06:50:30.918Z,71.03
2023-04-17T06:52:59.178Z,72.93
2023-04-17T06:55:28.976Z,71.60
2023-04-17T06:57:57.268Z,70.95
2023-04-17T07:00:25.858Z,75.41
2023-04-17T07:02:54.302Z,72.72
2023-04-17T07:05:22.702Z,72.01
2023-04-17T07:07:50.985Z,73.82
2023-04-17T07:10:19.647Z,71.28
2023-04-17T07:12:49.344Z,72.91
2023-04-17T07:15:17.713Z,72.16
2023-04-17T07:17:46.067Z,71.38
2023-04-17T07:20:14.282Z,79.72
2023-04-17T07:22:43.250Z,78.10
2023-04-17T07:25:11.531Z,76.17
2023-04-17T07:27:39.788Z,70.67
2023-04-17T07:30:10.452Z,68.64
2023-04-17T07:32:38.532Z,65.41
2023-04-17T07:35:07.745Z,63.88
2023-04-17T07:37:37.050Z,61.63
2023-04-17T07:40:10.300Z,61.87
2023-04-17T07:42:38.723Z,59.56
2023-04-17T07:45:10.038Z,57.95
2023-04-17T07:47:38.461Z,55.85
2023-04-17T07:50:08.116Z,59.14
2023-04-17T07:52:36.564Z,64.87
2023-04-17T07:55:05.253Z,60.38
2023-04-17T07:57:33.606Z,60.41
2023-04-17T08:00:02.005Z,57.28
2023-04-17T08:02:31.663Z,57.34
2023-04-17T08:05:01.610Z,57.37
2023-04-17T08:07:30.090Z,55.95
2023-04-17T08:09:58.349Z,53.21
2023-04-17T08:12:26.865Z,55.39
2023-04-17T08:14:55.272Z,51.20
2023-04-17T08:17:26.532Z,50.81
2023-04-17T08:19:57.528Z,49.35
2023-04-17T08:22:26.523Z,46.65
2023-04-17T08:24:57.920Z,47.58
2023-04-17T08:27:26.485Z,46.25
2023-04-17T08:29:55.585Z,44.82
2023-04-17T08:32:23.882Z,45.67
2023-04-17T08:34:52.671Z,45.70
2023-04-17T08:37:22.320Z,45.73
2023-04-17T08:39:52.495Z,45.72
2023-04-17T08:42:20.715Z,44.87
2023-04-17T08:44:49.157Z,45.38
2023-04-17T08:47:18.687Z,43.50
2023-04-17T08:49:47.330Z,42.93
2023-04-17T08:52:16.757Z,43.24
2023-04-17T08:54:48.342Z,41.27
2023-04-17T08:57:18.171Z,40.07
2023-04-17T08:59:46.917Z,39.56
2023-04-17T09:02:15.522Z,39.83
2023-04-17T09:04:45.317Z,40.40
2023-04-17T09:07:15.997Z,39.64
2023-04-17T09:09:52.861Z,39.61
2023-04-17T09:12:21.935Z,38.96
2023-04-17T09:14:50.536Z,39.57
2023-04-17T09:17:20.470Z,39.29
2023-04-17T09:20:04.074Z,40.08
2023-04-17T09:22:32.347Z,38.72
2023-04-17T09:25:02.438Z,38.35
2023-04-17T09:27:30.801Z,39.29
2023-04-17T09:30:00.923Z,41.30
2023-04-17T09:32:30.566Z,38.69
2023-04-17T09:35:00.322Z,37.50
2023-04-17T09:37:48.696Z,39.01
2023-04-17T09:40:19.132Z,40.15
2023-04-17T09:42:56.926Z,38.10
2023-04-17T09:45:26.126Z,37.98
2023-04-17T09:47:56.786Z,37.53
2023-04-17T09:50:25.894Z,37.79
2023-04-17T09:52:55.118Z,36.90
2023-04-17T09:55:26.766Z,38.98
2023-04-17T09:57:56.629Z,39.14
2023-04-17T10:00:27.081Z,37.64
2023-04-17T10:02:56.162Z,38.08
2023-04-17T10:05:26.063Z,36.56
2023-04-17T10:07:54.400Z,37.13
2023-04-17T10:10:25.319Z,39.17
2023-04-17T10:12:55.901Z,37.05
2023-04-17T10:15:24.601Z,37.65
2023-04-17T10:17:53.067Z,37.79
2023-04-17T10:20:38.150Z,38.30
2023-04-17T10:23:34.643Z,38.25
2023-04-17T10:26:38.839Z,39.10
2023-04-17T10:29:08.537Z,40.07
2023-04-17T10:32:24.274Z,39.79
2023-04-17T10:34:53.625Z,38.87
2023-04-17T10:37:23.297Z,37.93
2023-04-17T10:39:54.200Z,39.55
2023-04-17T10:42:23.775Z,39.92
2023-04-17T10:44:58.720Z,42.65
2023-04-17T10:47:31.931Z,42.56
2023-04-17T10:50:01.072Z,45.22
2023-04-17T10:52:44.670Z,42.47
2023-04-17T10:55:17.433Z,43.77
2023-04-17T10:58:00.818Z,43.11
2023-04-17T11:00:33.109Z,43.77
2023-04-17T11:03:02.973Z,46.06
2023-04-17T11:05:32.275Z,46.68
2023-04-17T11:08:00.756Z,44.96
2023-04-17T11:10:29.191Z,43.77
2023-04-17T11:12:57.559Z,43.27
2023-04-17T11:15:29.460Z,43.55
2023-04-17T11:18:00.038Z,45.11
2023-04-17T11:20:30.485Z,45.63
2023-04-17T11:23:02.368Z,44.44
2023-04-17T11:25:33.764Z,44.70
2023-04-17T11:28:03.755Z,42.77
2023-04-17T11:30:33.529Z,45.08
2023-04-17T11:33:04.396Z,44.44
2023-04-17T11:35:34.504Z,44.32
2023-04-17T11:38:14.386Z,43.25
2023-04-17T11:40:47.171Z,41.00
2023-04-17T11:43:15.796Z,39.60
2023-04-17T11:45:45.887Z,39.98
2023-04-17T11:48:16.763Z,40.66
2023-04-17T11:50:45.772Z,41.05
2023-04-17T11:53:15.656Z,41.64
2023-04-17T11:55:44.609Z,42.55
2023-04-17T11:58:14.119Z,41.17
2023-04-17T12:00:43.520Z,41.39
2023-04-17T12:03:35.777Z,42.27
2023-04-17T12:06:05.929Z,41.30
2023-04-17T12:08:43.716Z,42.08
2023-04-17T12:11:19.641Z,42.32
2023-04-17T12:13:48.177Z,42.25
2023-04-17T12:16:16.521Z,41.77
2023-04-17T12:18:46.735Z,38.51
2023-04-17T12:21:15.366Z,40.25
2023-04-17T12:23:43.980Z,42.08
2023-04-17T12:26:12.325Z,43.09
2023-04-17T12:28:40.705Z,42.03
2023-04-17T12:31:08.999Z,42.29
2023-04-17T12:33:37.376Z,41.29
2023-04-17T12:36:08.093Z,39.44
2023-04-17T12:38:36.475Z,41.14
2023-04-17T12:41:04.753Z,40.84
2023-04-17T12:43:33.691Z,42.00
2023-04-17T12:46:02.960Z,41.71
2023-04-17T12:48:33.003Z,38.90
2023-04-17T12:51:01.681Z,39.43
2023-04-17T12:53:36.317Z,38.77
2023-04-17T12:56:09.256Z,37.89
2023-04-17T12:58:54.833Z,39.67
2023-04-17T13:01:23.469Z,39.23
2023-04-17T13:03:52.065Z,37.57
2023-04-17T13:06:21.513Z,37.14
2023-04-17T13:08:51.199Z,39.16
2023-04-17T13:11:19.476Z,38.50
2023-04-17T13:13:47.744Z,37.60
2023-04-17T13:16:16.039Z,35.10
2023-04-17T13:18:44.426Z,35.78
2023-04-17T13:21:12.729Z,35.21
2023-04-17T13:23:40.952Z,34.85
2023-04-17T13:26:10.626Z,36.44
2023-04-17T13:28:39.862Z,35.44
2023-04-17T13:31:08.252Z,34.36
2023-04-17T13:33:36.698Z,36.35
2023-04-17T13:36:05.539Z,33.21
2023-04-17T13:38:34.113Z,33.98
2023-04-17T13:41:02.452Z,33.94
2023-04-17T13:43:32.134Z,33.24
2023-04-17T13:46:00.412Z,33.76
2023-04-17T13:48:28.766Z,33.17
2023-04-17T13:50:56.977Z,32.56
2023-04-17T13:53:25.257Z,34.07
2023-04-17T13:55:53.568Z,34.28
2023-04-17T13:58:21.829Z,32.65
2023-04-17T14:00:51.721Z,32.55
2023-04-17T14:03:20.162Z,31.45
2023-04-17T14:05:48.577Z,33.45
2023-04-17T14:08:16.942Z,32.80
2023-04-17T14:10:45.250Z,32.55
2023-04-17T14:13:13.460Z,31.62
2023-04-17T14:15:41.981Z,32.09
2023-04-17T14:18:11.655Z,34.84
2023-04-17T14:20:40.718Z,39.93
2023-04-17T14:23:08.996Z,42.04
2023-04-17T14:25:37.264Z,43.18
2023-04-17T14:28:05.539Z,42.63
2023-04-17T14:30:33.911Z,40.63
2023-04-17T14:33:02.284Z,40.31
2023-04-17T14:35:32.927Z,39.25
2023-04-17T14:38:01.101Z,38.16
2023-04-17T14:40:29.378Z,36.05
2023-04-17T14:42:57.626Z,37.57
2023-04-17T14:45:25.893Z,39.89
2023-04-17T14:47:54.253Z,41.00
2023-04-17T14:50:22.534Z,43.43
2023-04-17T14:52:52.542Z,44.57
2023-04-17T14:55:20.788Z,46.47
2023-04-17T14:57:49.064Z,48.33
2023-04-17T15:00:18.117Z,49.98
2023-04-17T15:02:46.636Z,51.29
2023-04-17T15:05:18.805Z,53.83
2023-04-17T15:07:47.233Z,55.50
2023-04-17T15:10:17.309Z,58.58
2023-04-17T15:12:45.598Z,54.90
2023-04-17T15:15:13.879Z,54.79
2023-04-17T15:17:42.397Z,54.23
2023-04-17T15:20:11.163Z,53.66
2023-04-17T15:22:39.395Z,53.09
2023-04-17T15:25:08.168Z,54.32
2023-04-17T15:27:37.798Z,54.35
2023-04-17T15:30:08.879Z,51.31
2023-04-17T15:32:37.455Z,51.26
2023-04-17T15:35:06.516Z,53.05
2023-04-17T15:37:34.856Z,51.92
2023-04-17T15:40:03.427Z,52.13
2023-04-17T15:42:31.803Z,52.56
2023-04-17T15:45:02.236Z,51.95
2023-04-17T15:47:30.520Z,49.93
2023-04-17T15:49:58.920Z,51.25
2023-04-17T15:52:27.218Z,51.00
2023-04-17T15:54:55.513Z,49.45
2023-04-17T15:57:24.249Z,50.27
2023-04-17T15:59:52.513Z,49.34
2023-04-17T16:02:22.314Z,48.43
2023-04-17T16:04:50.637Z,50.13
2023-04-17T16:07:19.970Z,51.39
2023-04-17T16:09:48.287Z,50.14
2023-04-17T16:12:16.529Z,48.71
2023-04-17T16:14:44.883Z,47.95
2023-04-17T16:17:13.117Z,46.27
2023-04-17T16:19:42.770Z,46.55
2023-04-17T16:22:11.046Z,44.91
2023-04-17T16:24:39.368Z,42.74
2023-04-17T16:27:07.663Z,42.08
2023-04-17T16:29:36.012Z,43.04
2023-04-17T16:32:04.298Z,42.04
2023-04-17T16:34:32.629Z,42.44
2023-04-17T16:37:03.376Z,42.46
2023-04-17T16:39:31.692Z,42.48
2023-04-17T16:41:59.992Z,41.47
2023-04-17T16:44:28.758Z,40.67
2023-04-17T16:49:28.763Z,40.61
2023-04-17T16:51:56.957Z,39.82
2023-04-17T16:54:26.608Z,38.81
2023-04-17T16:56:54.897Z,38.82
2023-04-17T16:59:23.246Z,38.69
2023-04-17T17:01:52.712Z,38.95
2023-04-17T17:04:21.067Z,38.85
2023-04-17T17:06:49.356Z,39.04
2023-04-17T17:09:17.708Z,39.25
2023-04-17T17:11:47.455Z,39.60
2023-04-17T17:14:16.273Z,40.17
2023-04-17T17:16:45.379Z,39.89
2023-04-17T17:19:14.698Z,40.52
2023-04-17T17:21:43.811Z,40.77
2023-04-17T17:24:12.097Z,40.85
2023-04-17T17:26:40.400Z,41.22
2023-04-17T17:29:10.098Z,41.50
2023-04-17T17:31:38.606Z,41.18
2023-04-17T17:34:22.498Z,41.52
2023-04-17T17:36:54.764Z,41.53
2023-04-17T17:39:23.148Z,42.08
2023-04-17T17:41:51.529Z,44.60
2023-04-17T17:44:33.975Z,51.49
2023-04-17T17:47:03.847Z,52.77
2023-04-17T17:49:33.345Z,51.95
2023-04-17T17:52:01.719Z,54.76
2023-04-17T17:54:29.945Z,55.26
2023-04-17T17:56:58.142Z,53.92
2023-04-17T17:59:26.751Z,52.56
2023-04-17T18:01:57.377Z,54.44
2023-04-17T18:04:26.070Z,55.42
2023-04-17T18:06:54.765Z,53.63
2023-04-17T18:09:23.009Z,56.00
2023-04-17T18:11:51.297Z,52.62
2023-04-17T18:14:19.571Z,50.71
2023-04-17T18:16:48.517Z,50.29
2023-04-17T18:19:18.199Z,49.11
2023-04-17T18:21:47.779Z,49.39
2023-04-17T18:24:16.222Z,49.09
2023-04-17T18:26:44.619Z,51.21
2023-04-17T18:29:12.832Z,49.36
2023-04-17T18:31:41.100Z,51.15
2023-04-17T18:34:09.890Z,52.33
2023-04-17T18:36:39.514Z,50.12
2023-04-17T18:39:07.788Z,50.36
2023-04-17T18:41:36.009Z,49.89
2023-04-17T18:44:04.217Z,49.57
2023-04-17T18:46:32.493Z,50.17
2023-04-17T18:49:00.834Z,50.21
2023-04-17T18:51:29.203Z,50.04
2023-04-17T18:53:58.888Z,50.13
2023-04-17T18:56:27.220Z,49.98
2023-04-17T18:58:55.512Z,51.31
2023-04-17T19:01:23.860Z,50.68
2023-04-17T19:03:52.989Z,53.46
2023-04-17T19:06:21.324Z,53.39
2023-04-17T19:08:49.545Z,54.28
2023-04-17T19:11:19.565Z,52.59
2023-04-17T19:13:47.880Z,51.30
2023-04-17T19:16:16.165Z,54.23
2023-04-17T19:18:44.481Z,55.01
2023-04-17T19:21:12.836Z,57.70
2023-04-17T19:23:41.266Z,60.15
2023-04-17T19:26:10.157Z,63.49
2023-04-17T19:28:39.818Z,63.09
2023-04-17T19:31:08.300Z,62.39
2023-04-17T19:33:36.795Z,61.70
2023-04-17T19:36:05.203Z,64.21
2023-04-17T19:38:33.610Z,64.08
2023-04-17T19:41:14.510Z,63.20
2023-04-17T19:43:44.347Z,62.33
2023-04-17T19:46:14.288Z,64.73
2023-04-17T19:48:44.779Z,67.24
2023-04-17T19:51:14.337Z,69.38
2023-04-17T19:53:43.983Z,66.18
2023-04-17T19:56:12.263Z,64.45
2023-04-17T19:58:41.429Z,63.56
2023-04-17T20:01:11.198Z,64.72
2023-04-17T20:03:42.190Z,66.91
2023-04-17T20:06:10.695Z,67.85
2023-04-17T20:08:38.922Z,67.49
2023-04-17T20:11:07.331Z,67.37
2023-04-17T20:13:35.783Z,65.82
2023-04-17T20:16:04.052Z,65.84
2023-04-17T20:18:37.403Z,65.71
2023-04-17T20:21:07.151Z,65.64
2023-04-17T20:23:35.541Z,64.83
2023-04-17T20:26:03.929Z,64.67
2023-04-17T20:28:32.157Z,65.79
2023-04-17T20:31:00.625Z,65.77
2023-04-17T20:33:29.018Z,65.80
2023-04-17T20:35:58.753Z,65.58
2023-04-17T20:38:26.991Z,66.62
2023-04-17T20:40:55.273Z,67.24
2023-04-17T20:43:23.490Z,67.43
2023-04-17T20:45:51.788Z,66.91
2023-04-17T20:48:20.094Z,66.09
2023-04-17T20:50:48.378Z,71.05
2023-04-17T20:53:18.061Z,72.04
2023-04-17T20:55:47.189Z,72.76
2023-04-17T20:58:15.548Z,70.51
2023-04-17T21:00:54.301Z,70.26
2023-04-17T21:03:30.176Z,70.89
2023-04-17T21:05:58.592Z,70.62
2023-04-17T21:08:28.243Z,68.87
2023-04-17T21:10:56.639Z,65.91
2023-04-17T21:13:25.026Z,67.56
2023-04-17T21:15:53.452Z,66.99
2023-04-17T21:18:21.812Z,66.43
2023-04-17T21:20:50.044Z,69.84
2023-04-17T21:23:18.728Z,69.06
2023-04-17T21:25:50.482Z,66.75
2023-04-17T21:28:18.761Z,68.51
2023-04-17T21:30:47.129Z,70.55
2023-04-17T21:33:15.410Z,68.98
2023-04-17T21:35:43.637Z,67.17
2023-04-17T21:38:11.977Z,64.52
2023-04-17T21:40:50.625Z,65.13
2023-04-17T21:43:20.881Z,68.74
2023-04-17T21:45:49.983Z,66.98
2023-04-17T21:48:18.483Z,66.60
2023-04-17T21:50:46.736Z,64.57
2023-04-17T21:53:15.037Z,66.93
2023-04-17T21:55:43.318Z,63.53
2023-04-17T21:58:11.581Z,64.58
2023-04-17T22:00:41.329Z,64.43
2023-04-17T22:03:09.655Z,64.90
2023-04-17T22:05:38.089Z,63.32
2023-04-17T22:08:06.586Z,62.48
2023-04-17T22:10:34.973Z,61.81
2023-04-17T22:13:03.458Z,62.36
2023-04-17T22:15:32.000Z,63.03
2023-04-17T22:18:01.861Z,65.81
2023-04-17T22:20:30.151Z,63.18
2023-04-17T22:22:58.492Z,60.94
2023-04-17T22:25:26.766Z,60.20
2023-04-17T22:27:55.071Z,62.61
2023-04-17T22:30:23.434Z,61.22
2023-04-17T22:32:51.925Z,60.62
2023-04-17T22:35:21.552Z,60.81
2023-04-17T22:37:49.757Z,60.89
2023-04-17T22:40:18.213Z,60.54
2023-04-17T22:42:46.527Z,60.42
2023-04-17T22:45:14.882Z,60.68
2023-04-17T22:47:43.205Z,60.12
2023-04-17T22:50:11.773Z,61.85
2023-04-17T22:52:41.369Z,63.39
2023-04-17T22:55:09.853Z,62.47
2023-04-17T22:57:38.129Z,64.07
2023-04-17T23:00:08.762Z,68.09
2023-04-17T23:02:37.102Z,70.10
2023-04-17T23:05:06.497Z,67.20
2023-04-17T23:07:34.901Z,65.21
2023-04-17T23:10:04.870Z,66.41
2023-04-17T23:12:33.207Z,66.27
2023-04-17T23:15:01.527Z,65.04
2023-04-17T23:17:29.857Z,67.41
2023-04-17T23:19:58.094Z,66.40
2023-04-17T23:22:26.440Z,65.07
2023-04-17T23:24:54.752Z,66.92
2023-04-17T23:27:24.410Z,70.42
2023-04-17T23:29:52.755Z,73.17
2023-04-17T23:32:21.177Z,71.69
2023-04-17T23:34:49.423Z,76.54
2023-04-17T23:37:17.765Z,72.68
2023-04-17T23:39:46.024Z,70.30
2023-04-17T23:42:14.434Z,69.69
2023-04-17T23:44:44.084Z,68.92
2023-04-17T23:47:13.878Z,67.86
2023-04-17T23:49:42.108Z,73.12
2023-04-17T23:52:10.359Z,72.79
2023-04-17T23:54:38.623Z,74.07
2023-04-17T23:57:06.961Z,76.27
2023-04-17T23:59:35.822Z,73.54
